createdAt,value
2023-05-10T00:01:11.046Z,100121.69
2023-05-10T00:03:37.943Z,100126.78
2023-05-10T00:06:04.632Z,100122.84
2023-05-10T00:08:31.196Z,100120.84
2023-05-10T00:10:57.760Z,100122.34
2023-05-10T00:13:24.461Z,100115.84
2023-05-10T00:15:51.169Z,100119.66
2023-05-10T00:18:19.083Z,100119.50
2023-05-10T00:20:45.674Z,100123.00
2023-05-10T00:23:12.279Z,100114.38
2023-05-10T00:25:38.968Z,100125.81
2023-05-10T00:28:05.502Z,100123.66
2023-05-10T00:30:32.439Z,100120.19
2023-05-10T00:32:59.082Z,100121.19
2023-05-10T00:35:27.810Z,100115.72
2023-05-10T00:37:54.348Z,100116.84
2023-05-10T00:40:21.057Z,100116.53
2023-05-10T00:42:53.614Z,100105.09
2023-05-10T00:45:21.307Z,100121.00
2023-05-10T00:47:47.919Z,100119.84
2023-05-10T00:50:15.946Z,100119.34
2023-05-10T00:52:44.154Z,100119.84
2023-05-10T00:55:12.374Z,100110.41
2023-05-10T00:57:39.318Z,100115.03
2023-05-10T01:00:07.168Z,100094.31
2023-05-10T01:02:35.139Z,100112.38
2023-05-10T01:05:03.181Z,100110.88
2023-05-10T01:07:29.970Z,100116.03
2023-05-10T01:09:58.634Z,100118.38
2023-05-10T01:12:25.593Z,100111.03
2023-05-10T01:14:52.615Z,100120.03
2023-05-10T01:17:19.642Z,100119.84
2023-05-10T01:19:46.364Z,100119.84
2023-05-10T01:22:40.010Z,100122.69
2023-05-10T01:25:32.667Z,100117.84
2023-05-10T01:28:45.355Z,100126.31
2023-05-10T01:31:34.412Z,100121.84
2023-05-10T01:34:07.892Z,100113.53
2023-05-10T01:36:44.369Z,100106.44
2023-05-10T01:39:18.184Z,100122.16
2023-05-10T01:41:50.628Z,100113.53
2023-05-10T01:44:22.119Z,100118.19
2023-05-10T01:46:54.061Z,100119.69
2023-05-10T01:49:29.973Z,100114.53
2023-05-10T01:52:07.937Z,100120.69
2023-05-10T01:54:36.389Z,100114.38
2023-05-10T01:57:06.231Z,100121.00
2023-05-10T01:59:36.160Z,100118.19
2023-05-10T02:02:05.443Z,100098.63
2023-05-10T02:04:36.068Z,100128.66
2023-05-10T02:07:03.242Z,100120.03
2023-05-10T02:09:32.860Z,100126.63
2023-05-10T02:12:02.386Z,100128.47
2023-05-10T02:14:30.809Z,100128.47
2023-05-10T02:16:59.394Z,100124.34
2023-05-10T02:19:29.757Z,100126.31
2023-05-10T02:22:00.697Z,100130.28
2023-05-10T02:24:28.336Z,100126.47
2023-05-10T02:26:56.036Z,100129.63
2023-05-10T02:29:24.403Z,100131.78
2023-05-10T02:31:53.553Z,100129.81
2023-05-10T02:34:22.740Z,100133.09
2023-05-10T02:36:51.547Z,100148.84
2023-05-10T02:39:21.537Z,100145.84
2023-05-10T02:41:49.829Z,100125.97
2023-05-10T02:44:20.080Z,100129.97
2023-05-10T02:46:47.752Z,100141.22
2023-05-10T02:49:14.528Z,100124.47
2023-05-10T02:51:44.997Z,100138.41
2023-05-10T02:54:19.436Z,100119.31
2023-05-10T02:56:51.691Z,100136.25
2023-05-10T02:59:18.258Z,100133.09
2023-05-10T03:01:44.850Z,100139.72
2023-05-10T03:04:11.687Z,100136.44
2023-05-10T03:06:38.564Z,100140.25
2023-05-10T03:09:05.380Z,100140.25
2023-05-10T03:11:46.683Z,100144.22
2023-05-10T03:14:31.060Z,100139.59
2023-05-10T03:17:04.921Z,100139.91
2023-05-10T03:19:36.950Z,100138.88
2023-05-10T03:22:08.892Z,100138.56
2023-05-10T03:24:40.178Z,100145.19
2023-05-10T03:27:08.776Z,100144.06
2023-05-10T03:29:37.927Z,100144.53
2023-05-10T03:32:05.098Z,100157.13
2023-05-10T03:34:32.392Z,100154.16
2023-05-10T03:36:59.126Z,100158.47
2023-05-10T03:39:28.296Z,100158.78
2023-05-10T03:41:58.014Z,100162.09
2023-05-10T03:44:24.691Z,100159.44
2023-05-10T03:46:52.696Z,100157.63
2023-05-10T03:49:19.562Z,100166.09
2023-05-10T03:51:46.348Z,100168.75
2023-05-10T03:54:12.924Z,100172.06
2023-05-10T03:56:39.511Z,100165.28
2023-05-10T03:59:06.749Z,100169.59
2023-05-10T04:01:33.234Z,100173.41
2023-05-10T04:04:01.124Z,100178.03
2023-05-10T04:06:27.724Z,100153.31
2023-05-10T04:08:55.182Z,100172.06
2023-05-10T04:11:21.784Z,100168.25
2023-05-10T04:13:48.309Z,100160.81
2023-05-10T04:16:14.873Z,100175.56
2023-05-10T04:18:41.371Z,100165.25
2023-05-10T04:21:13.555Z,100182.03
2023-05-10T04:23:40.332Z,100173.38
2023-05-10T04:26:07.221Z,100181.72
2023-05-10T04:28:34.914Z,100125.63
2023-05-10T04:31:02.604Z,100179.69
2023-05-10T04:33:29.201Z,100177.41
2023-05-10T04:35:59.610Z,100168.09
2023-05-10T04:38:27.738Z,100184.34
2023-05-10T04:40:54.289Z,100187.69
2023-05-10T04:43:21.272Z,100182.69
2023-05-10T04:45:47.776Z,100172.72
2023-05-10T04:48:14.474Z,100179.38
2023-05-10T04:50:41.291Z,100199.59
2023-05-10T04:53:08.030Z,100191.34
2023-05-10T04:55:36.870Z,100201.28
2023-05-10T04:58:03.455Z,100193.97
2023-05-10T05:00:29.976Z,100194.63
2023-05-10T05:02:56.575Z,100210.25
2023-05-10T05:05:23.136Z,100207.72
2023-05-10T05:07:49.755Z,100209.06
2023-05-10T05:10:16.504Z,100209.91
2023-05-10T05:12:44.623Z,100207.41
2023-05-10T05:15:12.023Z,100211.03
2023-05-10T05:17:38.659Z,100219.16
2023-05-10T05:20:06.518Z,100215.03
2023-05-10T05:22:33.090Z,100219.84
2023-05-10T05:25:00.111Z,100220.34
2023-05-10T05:27:26.779Z,100224.81
2023-05-10T05:29:54.925Z,100226.50
2023-05-10T05:32:21.554Z,100226.97
2023-05-10T05:34:48.334Z,100230.47
2023-05-10T05:37:15.111Z,100239.44
2023-05-10T05:39:41.894Z,100225.00
2023-05-10T05:42:08.708Z,100247.72
2023-05-10T05:44:35.272Z,100231.31
2023-05-10T05:47:03.328Z,100241.09
2023-05-10T05:49:30.066Z,100250.41
2023-05-10T05:51:59.981Z,100246.41
2023-05-10T05:54:26.470Z,100253.03
2023-05-10T05:56:55.000Z,100257.19
2023-05-10T05:59:21.697Z,100253.19
2023-05-10T06:01:48.350Z,100240.09
2023-05-10T06:04:16.528Z,100259.69
2023-05-10T06:06:43.516Z,100262.97
2023-05-10T06:09:10.565Z,100264.66
2023-05-10T06:11:37.404Z,100273.78
2023-05-10T06:14:04.232Z,100274.78
2023-05-10T06:16:30.838Z,100273.78
2023-05-10T06:18:57.435Z,100274.59
2023-05-10T06:21:25.446Z,100282.59
2023-05-10T06:23:52.049Z,100219.50
2023-05-10T06:26:18.561Z,100272.13
2023-05-10T06:28:45.221Z,100282.28
2023-05-10T06:31:11.828Z,100278.47
2023-05-10T06:33:38.366Z,100286.91
2023-05-10T06:36:05.565Z,100287.75
2023-05-10T06:38:33.426Z,100297.03
2023-05-10T06:40:59.930Z,100300.84
2023-05-10T06:43:26.677Z,100296.00
2023-05-10T06:45:53.230Z,100296.50
2023-05-10T06:48:19.778Z,100294.84
2023-05-10T06:50:46.292Z,100299.47
2023-05-10T06:53:12.831Z,100290.16
2023-05-10T06:55:40.824Z,100279.66
2023-05-10T06:58:07.488Z,100303.38
2023-05-10T07:00:34.184Z,100285.44
2023-05-10T07:03:00.892Z,100310.06
2023-05-10T07:05:27.527Z,100316.81
2023-05-10T07:07:54.086Z,100317.66
2023-05-10T07:10:20.920Z,100311.16
2023-05-10T07:12:49.066Z,100307.47
2023-05-10T07:15:15.683Z,100311.25
2023-05-10T07:17:44.139Z,100308.94
2023-05-10T07:20:13.144Z,100325.91
2023-05-10T07:22:39.712Z,100315.41
2023-05-10T07:25:07.233Z,100320.38
2023-05-10T07:27:33.795Z,100321.75
2023-05-10T07:30:01.767Z,100315.25
2023-05-10T07:32:28.422Z,100313.97
2023-05-10T07:34:55.039Z,100322.94
2023-05-10T07:37:21.590Z,100328.25
2023-05-10T07:39:48.155Z,100321.56
2023-05-10T07:42:14.677Z,100331.75
2023-05-10T07:44:41.208Z,100328.75
2023-05-10T07:47:09.135Z,100326.28
2023-05-10T07:49:35.677Z,100334.25
2023-05-10T07:52:03.957Z,100331.94
2023-05-10T07:54:30.481Z,100326.78
2023-05-10T07:56:57.024Z,100335.41
2023-05-10T07:59:23.590Z,100345.59
2023-05-10T08:01:50.119Z,100340.94
2023-05-10T08:04:18.096Z,100342.28
2023-05-10T08:06:44.621Z,100339.28
2023-05-10T08:09:11.142Z,100344.91
2023-05-10T08:11:37.660Z,100336.78
2023-05-10T08:14:04.246Z,100343.06
2023-05-10T08:16:30.912Z,100352.84
2023-05-10T08:18:57.545Z,100348.50
2023-05-10T08:21:25.524Z,100355.63
2023-05-10T08:23:52.073Z,100351.97
2023-05-10T08:26:18.587Z,100352.31
2023-05-10T08:28:45.343Z,100360.97
2023-05-10T08:31:11.898Z,100340.50
2023-05-10T08:33:38.452Z,100354.16
2023-05-10T08:36:05.338Z,100338.56
2023-05-10T08:38:33.528Z,100360.50
2023-05-10T08:41:02.065Z,100362.97
2023-05-10T08:43:30.049Z,100368.94
2023-05-10T08:45:56.854Z,100364.03
2023-05-10T08:48:25.186Z,100353.56
2023-05-10T08:50:54.290Z,100369.66
2023-05-10T08:53:21.837Z,100367.84
2023-05-10T08:55:49.998Z,100366.19
2023-05-10T08:58:16.730Z,100369.16
2023-05-10T09:00:43.987Z,100378.63
2023-05-10T09:03:11.191Z,100374.63
2023-05-10T09:05:37.737Z,100382.59
2023-05-10T09:08:04.889Z,100385.91
2023-05-10T09:10:32.201Z,100387.22
2023-05-10T09:13:00.258Z,100377.53
2023-05-10T09:15:27.035Z,100382.31
2023-05-10T09:17:53.716Z,100374.94
2023-05-10T09:20:20.339Z,100385.50
2023-05-10T09:22:46.881Z,100387.19
2023-05-10T09:25:15.677Z,100388.94
2023-05-10T09:27:45.654Z,100381.81
2023-05-10T09:30:17.251Z,100384.41
2023-05-10T09:32:45.771Z,100398.78
2023-05-10T09:35:13.925Z,100384.44
2023-05-10T09:37:41.807Z,100382.50
2023-05-10T09:40:11.832Z,100398.72
2023-05-10T09:42:39.171Z,100315.69
2023-05-10T09:45:07.799Z,100399.50
2023-05-10T09:47:36.612Z,100355.84
2023-05-10T09:50:04.291Z,100401.69
2023-05-10T09:52:31.593Z,100403.03
2023-05-10T09:54:58.137Z,100418.16
2023-05-10T09:57:25.576Z,100421.06
2023-05-10T09:59:52.190Z,100421.25
2023-05-10T10:02:18.858Z,100418.72
2023-05-10T10:04:50.611Z,100416.75
2023-05-10T10:07:24.307Z,100415.59
2023-05-10T10:09:51.088Z,100416.50
2023-05-10T10:12:17.757Z,100406.66
2023-05-10T10:14:44.417Z,100412.25
2023-05-10T10:17:11.527Z,100412.81
2023-05-10T10:19:38.470Z,100409.09
2023-05-10T10:22:06.734Z,100413.97
2023-05-10T10:24:33.516Z,100411.34
2023-05-10T10:27:08.719Z,100420.72
2023-05-10T10:29:40.568Z,100421.66
2023-05-10T10:32:18.321Z,100417.50
2023-05-10T10:34:45.137Z,100422.06
2023-05-10T10:37:13.089Z,100398.13
2023-05-10T10:39:39.674Z,100419.13
2023-05-10T10:42:06.205Z,100385.72
2023-05-10T10:44:37.865Z,100412.34
2023-05-10T10:47:05.941Z,100417.50
2023-05-10T10:49:33.203Z,100382.81
2023-05-10T10:52:22.509Z,100422.31
2023-05-10T10:54:53.579Z,100427.03
2023-05-10T10:57:21.336Z,100420.75
2023-05-10T10:59:48.267Z,100409.47
2023-05-10T11:02:34.470Z,100396.22
2023-05-10T11:05:01.471Z,100403.34
2023-05-10T11:07:29.402Z,100411.16
2023-05-10T11:09:56.037Z,100401.00
2023-05-10T11:12:23.455Z,100401.94
2023-05-10T11:14:51.161Z,100420.19
2023-05-10T11:17:25.117Z,100418.53
2023-05-10T11:20:07.945Z,100416.78
2023-05-10T11:22:50.359Z,100417.25
2023-05-10T11:25:17.018Z,100434.72
2023-05-10T11:27:43.707Z,100424.84
2023-05-10T11:30:11.819Z,100436.97
2023-05-10T11:32:39.346Z,100444.63
2023-05-10T11:35:08.652Z,100438.19
2023-05-10T11:37:35.233Z,100446.84
2023-05-10T11:40:03.411Z,100442.72
2023-05-10T11:42:30.123Z,100452.53
2023-05-10T11:44:57.258Z,100444.78
2023-05-10T11:47:23.801Z,100452.03
2023-05-10T11:49:50.385Z,100448.88
2023-05-10T11:52:19.600Z,100436.50
2023-05-10T11:54:51.629Z,100444.06
2023-05-10T11:57:20.818Z,100449.19
2023-05-10T11:59:47.328Z,100439.00
2023-05-10T12:02:14.744Z,100449.19
2023-05-10T12:04:42.276Z,100444.50
2023-05-10T12:07:09.026Z,100448.91
2023-05-10T12:09:43.931Z,100431.94
2023-05-10T12:12:11.398Z,100445.56
2023-05-10T12:14:39.246Z,100452.22
2023-05-10T12:17:05.832Z,100454.56
2023-05-10T12:19:38.262Z,100451.50
2023-05-10T12:22:05.817Z,100462.66
2023-05-10T12:24:35.024Z,100464.38
2023-05-10T12:27:05.853Z,100439.00
2023-05-10T12:29:32.348Z,100459.56
2023-05-10T12:32:01.106Z,100465.88
2023-05-10T12:34:31.011Z,100460.25
2023-05-10T12:36:57.755Z,100458.03
2023-05-10T12:39:24.575Z,100457.84
2023-05-10T12:41:51.474Z,100457.34
2023-05-10T12:44:18.370Z,100464.59
2023-05-10T12:46:44.870Z,100466.34
2023-05-10T12:49:13.037Z,100468.97
2023-05-10T12:51:39.668Z,100465.75
2023-05-10T12:54:06.304Z,100464.97
2023-05-10T12:56:32.852Z,100469.09
2023-05-10T12:58:59.386Z,100464.75
2023-05-10T13:01:25.970Z,100456.19
2023-05-10T13:03:52.597Z,100450.00
2023-05-10T13:06:20.512Z,100475.25
2023-05-10T13:08:47.093Z,100468.19
2023-05-10T13:11:13.627Z,100480.13
2023-05-10T13:13:40.133Z,100475.03
2023-05-10T13:16:07.435Z,100475.84
2023-05-10T13:18:34.000Z,100473.03
2023-05-10T13:21:00.543Z,100468.94
2023-05-10T13:23:28.509Z,100468.44
2023-05-10T13:25:55.035Z,100469.13
2023-05-10T13:28:21.563Z,100460.34
2023-05-10T13:30:48.051Z,100468.06
2023-05-10T13:33:14.609Z,100467.34
2023-05-10T13:35:41.267Z,100468.22
2023-05-10T13:38:07.879Z,100467.97
2023-05-10T13:40:35.863Z,100470.22
2023-05-10T13:43:02.371Z,100463.84
2023-05-10T13:45:28.873Z,100473.72
2023-05-10T13:47:55.526Z,100470.88
2023-05-10T13:50:22.014Z,100466.84
2023-05-10T13:52:48.550Z,100451.66
2023-05-10T13:55:15.551Z,100460.41
2023-05-10T13:57:43.757Z,100464.03
2023-05-10T14:00:11.255Z,100470.13
2023-05-10T14:02:37.888Z,100468.00
2023-05-10T14:05:05.422Z,100446.06
2023-05-10T14:07:31.944Z,100470.56
2023-05-10T14:09:58.459Z,100472.66
2023-05-10T14:12:25.056Z,100462.91
2023-05-10T14:14:53.076Z,100473.03
2023-05-10T14:17:19.660Z,100462.72
2023-05-10T14:19:46.165Z,100477.75
2023-05-10T14:22:12.661Z,100475.06
2023-05-10T14:24:39.477Z,100469.56
2023-05-10T14:27:06.002Z,100469.66
2023-05-10T14:29:32.491Z,100477.25
2023-05-10T14:32:00.410Z,100480.91
2023-05-10T14:34:27.131Z,100476.41
2023-05-10T14:36:53.644Z,100463.91
2023-05-10T14:39:20.154Z,100474.28
2023-05-10T14:41:46.698Z,100475.44
2023-05-10T14:44:13.359Z,100479.97
2023-05-10T14:46:39.896Z,100436.88
2023-05-10T14:49:07.773Z,100460.63
2023-05-10T14:51:34.359Z,100482.72
2023-05-10T14:54:00.906Z,100459.41
2023-05-10T14:56:27.433Z,100471.88
2023-05-10T14:58:53.950Z,100478.53
2023-05-10T15:01:20.995Z,100482.03
2023-05-10T15:03:48.068Z,100479.78
2023-05-10T15:06:16.386Z,100485.97
2023-05-10T15:08:42.933Z,100483.75
2023-05-10T15:11:09.472Z,100482.19
2023-05-10T15:13:36.079Z,100482.13
2023-05-10T15:16:02.722Z,100481.81
2023-05-10T15:18:29.316Z,100479.41
2023-05-10T15:20:55.821Z,100495.22
2023-05-10T15:23:23.687Z,100498.00
2023-05-10T15:25:50.167Z,100497.94
2023-05-10T15:28:16.695Z,100496.44
2023-05-10T15:30:43.221Z,100493.78
2023-05-10T15:33:09.799Z,100494.53
2023-05-10T15:35:36.566Z,100501.41
2023-05-10T15:38:03.345Z,100499.50
2023-05-10T15:40:31.533Z,100492.94
2023-05-10T15:42:58.125Z,100486.78
2023-05-10T15:45:24.781Z,100495.19
2023-05-10T15:47:51.354Z,100495.47
2023-05-10T15:50:17.959Z,100494.72
2023-05-10T15:52:44.683Z,100497.47
2023-05-10T15:55:11.313Z,100495.34
2023-05-10T15:57:39.284Z,100495.25
2023-05-10T16:00:07.271Z,100500.78
2023-05-10T16:02:39.123Z,100490.09
2023-05-10T16:05:06.138Z,100498.81
2023-05-10T16:07:32.658Z,100499.94
2023-05-10T16:09:59.276Z,100507.59
2023-05-10T16:12:25.930Z,100457.25
2023-05-10T16:14:53.979Z,100516.19
2023-05-10T16:17:20.545Z,100507.09
2023-05-10T16:19:47.239Z,100514.91
2023-05-10T16:22:13.885Z,100504.19
2023-05-10T16:24:40.592Z,100489.13
2023-05-10T16:27:07.089Z,100501.41
2023-05-10T16:29:33.680Z,100499.97
2023-05-10T16:32:01.555Z,100509.44
2023-05-10T16:34:28.171Z,100513.16
2023-05-10T16:36:54.723Z,100521.31
2023-05-10T16:39:21.309Z,100503.06
2023-05-10T16:41:48.075Z,100511.75
2023-05-10T16:44:14.629Z,100512.72
2023-05-10T16:46:41.436Z,100518.13
2023-05-10T16:49:09.451Z,100525.00
2023-05-10T16:51:35.986Z,100523.91
2023-05-10T16:54:02.775Z,100535.00
2023-05-10T16:56:29.358Z,100531.09
2023-05-10T16:58:55.973Z,100533.22
2023-05-10T17:01:24.925Z,100505.81
2023-05-10T17:03:53.138Z,100547.34
2023-05-10T17:06:21.193Z,100518.38
2023-05-10T17:08:47.851Z,100532.53
2023-05-10T17:11:14.644Z,100539.69
2023-05-10T17:13:41.245Z,100543.66
2023-05-10T17:16:08.251Z,100547.72
2023-05-10T17:18:35.020Z,100546.28
2023-05-10T17:21:01.749Z,100550.53
2023-05-10T17:23:29.696Z,100552.38
2023-05-10T17:25:56.200Z,100559.81
2023-05-10T17:28:22.776Z,100555.75
2023-05-10T17:30:55.585Z,100549.53
2023-05-10T17:33:22.228Z,100558.09
2023-05-10T17:35:49.087Z,100559.75
2023-05-10T17:38:15.767Z,100545.91
2023-05-10T17:40:43.740Z,100557.91
2023-05-10T17:43:10.636Z,100557.47
2023-05-10T17:45:37.180Z,100558.19
2023-05-10T17:48:04.589Z,100561.69
2023-05-10T17:50:31.194Z,100551.78
2023-05-10T17:52:57.963Z,100555.72
2023-05-10T17:55:24.510Z,100556.88
2023-05-10T17:57:52.797Z,100552.88
2023-05-10T18:00:19.619Z,100545.16
2023-05-10T18:02:46.291Z,100546.72
2023-05-10T18:05:13.039Z,100519.34
2023-05-10T18:07:39.946Z,100534.56
2023-05-10T18:10:07.694Z,100564.97
2023-05-10T18:12:34.366Z,100550.44
2023-05-10T18:15:02.228Z,100566.38
2023-05-10T18:17:28.823Z,100568.13
2023-05-10T18:19:55.349Z,100575.69
2023-05-10T18:22:21.914Z,100564.06
2023-05-10T18:24:48.569Z,100573.94
2023-05-10T18:27:15.190Z,100571.03
2023-05-10T18:29:41.688Z,100562.41
2023-05-10T18:32:10.034Z,100578.53
2023-05-10T18:34:36.603Z,100584.59
2023-05-10T18:37:03.335Z,100584.63
2023-05-10T18:39:29.860Z,100587.72
2023-05-10T18:41:56.590Z,100576.78
2023-05-10T18:44:23.180Z,100578.81
2023-05-10T18:46:49.941Z,100587.06
2023-05-10T18:49:18.493Z,100585.44
2023-05-10T18:51:45.053Z,100581.47
2023-05-10T18:54:11.568Z,100586.22
2023-05-10T18:56:38.476Z,100577.06
2023-05-10T18:59:05.016Z,100589.09
2023-05-10T19:01:31.574Z,100588.00
2023-05-10T19:03:58.044Z,100586.88
2023-05-10T19:06:26.089Z,100582.25
2023-05-10T19:08:52.638Z,100585.97
2023-05-10T19:11:19.570Z,100580.00
2023-05-10T19:13:46.127Z,100590.00
2023-05-10T19:16:14.563Z,100583.50
2023-05-10T19:18:41.183Z,100589.34
2023-05-10T19:21:09.456Z,100599.34
2023-05-10T19:23:37.657Z,100588.31
2023-05-10T19:26:04.409Z,100611.78
2023-05-10T19:28:31.175Z,100609.78
2023-05-10T19:30:57.982Z,100614.75
2023-05-10T19:33:24.549Z,100609.09
2023-05-10T19:35:51.414Z,100613.25
2023-05-10T19:38:20.058Z,100616.88
2023-05-10T19:40:49.221Z,100621.19
2023-05-10T19:43:16.378Z,100595.72
2023-05-10T19:45:43.246Z,100616.03
2023-05-10T19:48:11.113Z,100617.16
2023-05-10T19:50:38.160Z,100606.00
2023-05-10T19:53:04.765Z,100623.81
2023-05-10T19:55:32.128Z,100632.78
2023-05-10T19:58:00.029Z,100635.59
2023-05-10T20:00:26.863Z,100631.94
2023-05-10T20:02:54.032Z,100632.75
2023-05-10T20:05:20.969Z,100609.63
2023-05-10T20:07:47.545Z,100638.91
2023-05-10T20:10:14.158Z,100639.72
2023-05-10T20:12:40.704Z,100640.72
2023-05-10T20:15:09.266Z,100640.72
2023-05-10T20:17:35.837Z,100641.75
2023-05-10T20:20:02.405Z,100639.91
2023-05-10T20:22:29.129Z,100603.44
2023-05-10T20:24:56.318Z,100634.41
2023-05-10T20:27:22.869Z,100643.03
2023-05-10T20:29:49.451Z,100641.50
2023-05-10T20:32:17.282Z,100636.53
2023-05-10T20:34:43.878Z,100637.81
2023-05-10T20:37:10.448Z,100640.47
2023-05-10T20:39:37.014Z,100640.81
2023-05-10T20:42:03.592Z,100634.97
2023-05-10T20:44:30.207Z,100637.94
2023-05-10T20:46:56.837Z,100627.28
2023-05-10T20:49:25.004Z,100552.31
2023-05-10T20:51:51.564Z,100637.94
2023-05-10T20:54:18.186Z,100631.75
2023-05-10T20:56:44.701Z,100641.41
2023-05-10T20:59:11.812Z,100642.72
2023-05-10T21:01:38.358Z,100644.94
2023-05-10T21:04:05.357Z,100648.41
2023-05-10T21:06:33.224Z,100629.44
2023-05-10T21:08:59.812Z,100640.44
2023-05-10T21:11:26.336Z,100639.63
2023-05-10T21:13:53.013Z,100643.25
2023-05-10T21:16:19.664Z,100641.59
2023-05-10T21:18:46.404Z,100620.06
2023-05-10T21:21:13.040Z,100642.06
2023-05-10T21:23:41.213Z,100641.22
2023-05-10T21:26:07.708Z,100631.75
2023-05-10T21:28:34.294Z,100630.91
2023-05-10T21:31:00.835Z,100631.09
2023-05-10T21:33:27.427Z,100603.22
2023-05-10T21:35:53.993Z,100630.69
2023-05-10T21:38:20.633Z,100597.06
2023-05-10T21:40:48.648Z,100591.34
2023-05-10T21:43:15.396Z,100625.00
2023-05-10T21:45:41.906Z,100623.94
2023-05-10T21:48:08.551Z,100628.56
2023-05-10T21:50:35.239Z,100617.38
2023-05-10T21:53:02.511Z,100627.22
2023-05-10T21:55:29.153Z,100574.59
2023-05-10T21:57:57.933Z,100620.38
2023-05-10T22:00:24.448Z,100618.91
2023-05-10T22:02:51.092Z,100609.88
2023-05-10T22:05:17.738Z,100619.66
2023-05-10T22:07:44.340Z,100626.22
2023-05-10T22:10:11.182Z,100629.50
2023-05-10T22:12:38.081Z,100637.09
2023-05-10T22:15:10.270Z,100639.22
2023-05-10T22:17:38.170Z,100645.16
2023-05-10T22:20:06.021Z,100645.59
2023-05-10T22:22:32.609Z,100647.56
2023-05-10T22:24:59.183Z,100649.53
2023-05-10T22:27:25.806Z,100638.44
2023-05-10T22:29:52.297Z,100595.25
2023-05-10T22:32:20.361Z,100660.44
2023-05-10T22:34:46.990Z,100658.41
2023-05-10T22:37:13.589Z,100673.72
2023-05-10T22:39:40.159Z,100664.91
2023-05-10T22:42:06.741Z,100667.56
2023-05-10T22:44:33.250Z,100567.28
2023-05-10T22:46:59.928Z,100680.28
2023-05-10T22:49:27.798Z,100670.66
2023-05-10T22:51:54.392Z,100663.84
2023-05-10T22:54:20.900Z,100669.38
2023-05-10T22:56:47.453Z,100670.88
2023-05-10T22:59:14.022Z,100668.94
2023-05-10T23:01:40.924Z,100677.56
2023-05-10T23:04:07.472Z,100645.88
2023-05-10T23:06:35.415Z,100683.41
2023-05-10T23:09:01.974Z,100659.53
2023-05-10T23:11:28.692Z,100682.56
2023-05-10T23:13:55.348Z,100658.31
2023-05-10T23:16:22.116Z,100679.00
2023-05-10T23:18:48.709Z,100668.59
2023-05-10T23:21:15.364Z,100694.47
2023-05-10T23:23:43.268Z,100670.22
2023-05-10T23:26:10.094Z,100690.03
2023-05-10T23:28:36.644Z,100689.06
2023-05-10T23:31:03.403Z,100696.75
2023-05-10T23:33:29.940Z,100699.38
2023-05-10T23:35:56.526Z,100695.34
2023-05-10T23:38:23.090Z,100661.97
2023-05-10T23:40:51.271Z,100689.81
2023-05-10T23:43:17.875Z,100689.66
2023-05-10T23:45:52.517Z,100689.59
2023-05-10T23:48:19.191Z,100581.97
2023-05-10T23:50:45.701Z,100699.38
2023-05-10T23:53:12.349Z,100702.84
2023-05-10T23:55:38.914Z,100704.53
2023-05-10T23:58:06.836Z,100700.06
